Time;durP1;ratioP1;P1;durP2;ratioP2;P2;SDS_P1;SDS_P2;PMS_P1;PMS_P2;Temp;Humidity;BMP_temperature;BMP_pressure;BME280_temperature;BME280_humidity;BME280_pressure;Samples;Min_cycle;Max_cycle;Signal;HPM_P1;HPM_P2
2022/03/24 00:01:37;;;;;;;42.88;26.08;;;;;;;;;;5095524;28;20201;-69
2022/03/24 00:04:04;;;;;;;41.20;26.67;;;;;;;;;;5095649;28;20225;-69
2022/03/24 00:06:32;;;;;;;35.92;25.67;;;;;;;;;;5095987;28;20218;-69
2022/03/24 00:08:59;;;;;;;40.45;26.35;;;;;;;;;;5095241;28;20727;-69
2022/03/24 00:11:26;;;;;;;42.60;25.23;;;;;;;;;;5095342;28;20291;-69
2022/03/24 00:13:54;;;;;;;39.50;26.17;;;;;;;;;;5094874;28;20227;-69
2022/03/24 00:16:21;;;;;;;40.08;26.90;;;;;;;;;;5095105;28;20197;-69
2022/03/24 00:18:50;;;;;;;38.85;26.60;;;;;;;;;;5095544;28;20222;-69
2022/03/24 00:21:17;;;;;;;42.60;24.77;;;;;;;;;;5095104;28;20199;-69
2022/03/24 00:23:45;;;;;;;38.03;27.20;;;;;;;;;;5095201;28;20226;-69
2022/03/24 00:26:12;;;;;;;35.20;25.63;;;;;;;;;;5095013;28;20684;-69
2022/03/24 00:28:40;;;;;;;41.83;28.45;;;;;;;;;;5095169;28;20191;-69
2022/03/24 00:31:07;;;;;;;42.97;28.65;;;;;;;;;;5095283;28;20197;-69
2022/03/24 00:33:34;;;;;;;38.58;26.02;;;;;;;;;;5094786;28;20653;-69
2022/03/24 00:36:03;;;;;;;37.53;26.75;;;;;;;;;;5094816;28;20649;-69
2022/03/24 00:38:30;;;;;;;40.15;26.05;;;;;;;;;;5094658;28;20286;-69
2022/03/24 00:40:58;;;;;;;45.92;29.42;;;;;;;;;;5095233;28;20658;-69
2022/03/24 00:43:25;;;;;;;38.45;26.42;;;;;;;;;;5094515;28;20719;-69
2022/03/24 00:45:52;;;;;;;37.65;26.60;;;;;;;;;;5094886;28;20314;-69
2022/03/24 00:48:20;;;;;;;37.47;26.70;;;;;;;;;;5095088;28;20203;-69
2022/03/24 00:50:47;;;;;;;42.50;28.55;;;;;;;;;;5094836;28;20287;-69
2022/03/24 00:53:16;;;;;;;36.85;26.73;;;;;;;;;;5094704;28;20210;-69
2022/03/24 00:55:43;;;;;;;41.65;26.80;;;;;;;;;;5094494;28;20656;-69
2022/03/24 00:58:13;;;;;;;38.47;26.80;;;;;;;;;;5094333;28;20201;-69
2022/03/24 01:00:41;;;;;;;40.65;26.17;;;;;;;;;;5094770;28;20185;-69
2022/03/24 01:03:09;;;;;;;37.55;26.25;;;;;;;;;;5094403;28;20207;-69
2022/03/24 01:05:37;;;;;;;37.35;26.25;;;;;;;;;;5094277;28;20199;-69
2022/03/24 01:08:08;;;;;;;44.90;25.75;;;;;;;;;;5094362;28;20203;-69
2022/03/24 01:10:37;;;;;;;37.53;25.88;;;;;;;;;;5094426;28;20654;-69
2022/03/24 01:13:04;;;;;;;38.10;25.85;;;;;;;;;;5094819;28;20223;-69
2022/03/24 01:15:32;;;;;;;36.75;25.13;;;;;;;;;;5094330;28;20287;-69
2022/03/24 01:18:00;;;;;;;40.28;25.95;;;;;;;;;;5094056;28;20200;-69
2022/03/24 01:20:28;;;;;;;41.60;27.15;;;;;;;;;;5093948;28;20233;-69
2022/03/24 01:22:55;;;;;;;39.80;24.85;;;;;;;;;;5093914;28;20287;-69
2022/03/24 01:25:24;;;;;;;40.92;26.20;;;;;;;;;;5093014;28;20715;-69
2022/03/24 01:27:52;;;;;;;43.40;27.70;;;;;;;;;;5094394;28;20291;-69
2022/03/24 01:30:20;;;;;;;35.05;25.40;;;;;;;;;;5094060;28;20652;-69
2022/03/24 01:32:47;;;;;;;44.17;27.25;;;;;;;;;;5094142;28;20225;-69
2022/03/24 01:35:15;;;;;;;52.08;26.13;;;;;;;;;;5093960;28;20198;-69
2022/03/24 01:37:43;;;;;;;40.20;27.42;;;;;;;;;;5094552;28;20194;-69
2022/03/24 01:40:12;;;;;;;41.58;26.52;;;;;;;;;;5093950;28;20204;-71
2022/03/24 01:42:40;;;;;;;40.10;27.55;;;;;;;;;;5094173;28;20221;-68
2022/03/24 01:45:09;;;;;;;37.40;26.17;;;;;;;;;;5093614;28;20240;-69
2022/03/24 01:47:37;;;;;;;38.63;26.25;;;;;;;;;;5094139;28;20194;-68
2022/03/24 01:50:04;;;;;;;39.15;26.38;;;;;;;;;;5093949;28;20195;-68
2022/03/24 01:52:32;;;;;;;40.65;26.45;;;;;;;;;;5093445;28;20193;-68
2022/03/24 01:55:00;;;;;;;38.38;27.05;;;;;;;;;;5093361;28;20199;-68
2022/03/24 01:57:28;;;;;;;38.17;26.30;;;;;;;;;;5093784;28;20197;-68
2022/03/24 01:59:55;;;;;;;38.85;26.25;;;;;;;;;;5093659;28;20199;-69
2022/03/24 02:02:24;;;;;;;40.65;26.10;;;;;;;;;;5093708;28;20198;-68
2022/03/24 02:04:51;;;;;;;42.72;28.00;;;;;;;;;;5093162;28;20227;-68
2022/03/24 02:07:19;;;;;;;39.72;26.30;;;;;;;;;;5094123;28;20327;-68
2022/03/24 02:09:46;;;;;;;42.05;26.77;;;;;;;;;;5093542;28;20534;-68
2022/03/24 02:12:14;;;;;;;44.33;27.13;;;;;;;;;;5093581;28;20201;-68
2022/03/24 02:14:42;;;;;;;37.05;26.23;;;;;;;;;;5093467;28;20217;-68
2022/03/24 02:17:10;;;;;;;35.40;24.48;;;;;;;;;;5093269;28;20202;-68
2022/03/24 02:19:38;;;;;;;45.13;26.15;;;;;;;;;;5093587;28;20222;-68
2022/03/24 02:22:11;;;;;;;39.47;27.13;;;;;;;;;;5093303;28;20660;-68
2022/03/24 02:24:39;;;;;;;41.10;26.10;;;;;;;;;;5093513;28;20307;-68
2022/03/24 02:27:06;;;;;;;34.53;25.92;;;;;;;;;;5093292;28;20644;-68
2022/03/24 02:29:35;;;;;;;39.45;27.90;;;;;;;;;;5093517;28;20199;-68
2022/03/24 02:32:04;;;;;;;44.33;27.65;;;;;;;;;;5093074;28;20305;-68
2022/03/24 02:34:47;;;;;;;40.58;27.15;;;;;;;;;;5092904;28;20199;-68
2022/03/24 02:37:17;;;;;;;42.53;24.90;;;;;;;;;;5097250;28;20197;-68
2022/03/24 02:39:45;;;;;;;41.40;26.33;;;;;;;;;;5096977;28;20648;-68
2022/03/24 02:42:15;;;;;;;38.17;28.05;;;;;;;;;;5097431;28;20647;-68
2022/03/24 02:44:43;;;;;;;36.35;24.90;;;;;;;;;;5097158;28;20657;-68
2022/03/24 02:47:11;;;;;;;41.50;25.50;;;;;;;;;;5097277;28;20276;-68
2022/03/24 02:49:38;;;;;;;36.20;26.55;;;;;;;;;;5096819;28;20228;-68
2022/03/24 02:52:06;;;;;;;38.40;26.35;;;;;;;;;;5097166;28;20194;-68
2022/03/24 02:54:35;;;;;;;36.08;25.95;;;;;;;;;;5097469;28;20529;-68
2022/03/24 02:57:02;;;;;;;40.92;26.80;;;;;;;;;;5096790;28;20653;-69
2022/03/24 02:59:30;;;;;;;42.63;27.20;;;;;;;;;;5097004;28;20193;-69
2022/03/24 03:01:59;;;;;;;35.58;24.80;;;;;;;;;;5097795;28;20194;-69
2022/03/24 03:04:26;;;;;;;38.10;24.70;;;;;;;;;;5096443;28;20572;-69
2022/03/24 03:06:54;;;;;;;37.30;26.15;;;;;;;;;;5096632;28;20284;-69
2022/03/24 03:09:22;;;;;;;33.03;25.70;;;;;;;;;;5096496;28;20199;-70
2022/03/24 03:11:52;;;;;;;43.08;26.67;;;;;;;;;;5096790;28;20299;-70
2022/03/24 03:14:19;;;;;;;40.42;26.17;;;;;;;;;;5096418;28;20645;-70
2022/03/24 03:16:47;;;;;;;39.00;27.23;;;;;;;;;;5096412;28;20202;-70
2022/03/24 03:19:15;;;;;;;47.15;26.88;;;;;;;;;;5097369;28;20198;-70
2022/03/24 03:21:43;;;;;;;42.42;25.08;;;;;;;;;;5096590;28;20199;-70
2022/03/24 03:24:11;;;;;;;38.65;25.45;;;;;;;;;;5096870;28;20222;-69
2022/03/24 03:26:38;;;;;;;39.88;25.60;;;;;;;;;;5096103;28;20203;-70
2022/03/24 03:29:07;;;;;;;37.35;25.23;;;;;;;;;;5097012;28;20204;-69
2022/03/24 03:31:35;;;;;;;40.40;25.13;;;;;;;;;;5096182;28;20205;-69
2022/03/24 03:34:02;;;;;;;37.83;25.33;;;;;;;;;;5096436;28;20195;-69
2022/03/24 03:36:30;;;;;;;39.50;25.30;;;;;;;;;;5096026;28;20198;-70
2022/03/24 03:38:58;;;;;;;48.28;26.48;;;;;;;;;;5095960;28;20197;-70
2022/03/24 03:41:26;;;;;;;39.72;26.50;;;;;;;;;;5095822;28;20194;-70
2022/03/24 03:43:54;;;;;;;37.78;25.23;;;;;;;;;;5095856;28;20192;-69
2022/03/24 03:46:24;;;;;;;36.75;25.48;;;;;;;;;;5095452;28;20226;-69
2022/03/24 03:48:52;;;;;;;40.78;27.00;;;;;;;;;;5095491;28;20184;-69
2022/03/24 03:51:19;;;;;;;41.65;28.75;;;;;;;;;;5096213;28;20561;-69
2022/03/24 03:53:46;;;;;;;40.55;25.38;;;;;;;;;;5095987;28;20201;-69
2022/03/24 03:56:13;;;;;;;44.92;28.27;;;;;;;;;;5096074;28;20195;-70
2022/03/24 03:58:41;;;;;;;38.75;25.80;;;;;;;;;;5095879;28;20554;-69
2022/03/24 04:01:09;;;;;;;38.83;25.50;;;;;;;;;;5096080;28;20284;-70
2022/03/24 04:03:39;;;;;;;39.42;25.60;;;;;;;;;;5095877;28;20208;-70
2022/03/24 04:06:09;;;;;;;39.35;27.02;;;;;;;;;;5095616;28;20309;-69
2022/03/24 04:08:36;;;;;;;38.72;26.02;;;;;;;;;;5095502;28;20705;-69
2022/03/24 04:11:07;;;;;;;42.67;28.48;;;;;;;;;;5095663;28;20190;-70
2022/03/24 04:13:35;;;;;;;42.95;28.38;;;;;;;;;;5095686;28;20190;-70
2022/03/24 04:16:03;;;;;;;42.30;26.55;;;;;;;;;;5095295;28;20194;-70
2022/03/24 04:18:30;;;;;;;40.00;28.08;;;;;;;;;;5095552;28;20194;-70
2022/03/24 04:20:59;;;;;;;43.10;26.77;;;;;;;;;;5095750;28;20195;-69
2022/03/24 04:23:26;;;;;;;40.03;27.98;;;;;;;;;;5095760;28;20198;-69
2022/03/24 04:25:54;;;;;;;44.42;28.50;;;;;;;;;;5095187;28;20227;-70
2022/03/24 04:28:21;;;;;;;38.08;25.45;;;;;;;;;;5095382;28;20194;-69
2022/03/24 04:30:48;;;;;;;43.33;27.90;;;;;;;;;;5095208;28;20191;-70
2022/03/24 04:33:15;;;;;;;42.00;28.98;;;;;;;;;;5095665;28;20199;-69
2022/03/24 04:35:44;;;;;;;45.30;28.55;;;;;;;;;;5094860;28;20292;-70
2022/03/24 04:38:14;;;;;;;39.58;27.52;;;;;;;;;;5095161;28;20619;-70
2022/03/24 04:40:41;;;;;;;38.72;26.83;;;;;;;;;;5095065;28;20200;-69
2022/03/24 04:43:09;;;;;;;45.08;29.75;;;;;;;;;;5095060;28;20194;-69
2022/03/24 04:45:37;;;;;;;61.15;29.92;;;;;;;;;;5094626;28;20304;-70
2022/03/24 04:48:04;;;;;;;48.92;27.70;;;;;;;;;;5095272;28;20198;-70
2022/03/24 04:50:31;;;;;;;42.63;30.05;;;;;;;;;;5094923;28;20202;-70
2022/03/24 04:52:59;;;;;;;45.33;30.10;;;;;;;;;;5094747;28;20564;-70
2022/03/24 04:55:27;;;;;;;41.90;27.75;;;;;;;;;;5094823;28;20200;-69
2022/03/24 04:57:55;;;;;;;50.35;29.48;;;;;;;;;;5094324;28;20200;-70
2022/03/24 05:00:22;;;;;;;46.72;28.48;;;;;;;;;;5094673;28;20222;-70
2022/03/24 05:02:49;;;;;;;44.17;28.98;;;;;;;;;;5094272;28;20667;-75
2022/03/24 05:05:16;;;;;;;40.67;27.15;;;;;;;;;;5094796;28;20326;-76
2022/03/24 05:07:44;;;;;;;42.50;27.75;;;;;;;;;;5095161;28;20197;-76
2022/03/24 05:10:11;;;;;;;42.17;28.35;;;;;;;;;;5094841;28;20191;-76
2022/03/24 05:12:41;;;;;;;43.88;28.73;;;;;;;;;;5093045;28;20195;-76
2022/03/24 05:15:12;;;;;;;43.00;28.48;;;;;;;;;;5092918;28;20199;-75
2022/03/24 05:17:40;;;;;;;42.55;28.70;;;;;;;;;;5093620;28;20222;-75
2022/03/24 05:20:08;;;;;;;49.25;29.63;;;;;;;;;;5093853;28;20611;-75
2022/03/24 05:22:36;;;;;;;42.42;28.85;;;;;;;;;;5093988;28;20198;-75
2022/03/24 05:25:03;;;;;;;40.88;28.17;;;;;;;;;;5092861;28;20222;-75
2022/03/24 05:27:30;;;;;;;43.65;29.00;;;;;;;;;;5093928;28;20280;-75
2022/03/24 05:29:58;;;;;;;38.42;27.48;;;;;;;;;;5093827;28;20218;-75
2022/03/24 05:32:26;;;;;;;44.22;28.48;;;;;;;;;;5093097;28;20195;-76
2022/03/24 05:34:54;;;;;;;41.13;27.95;;;;;;;;;;5093802;28;20202;-75
2022/03/24 05:37:21;;;;;;;38.60;28.20;;;;;;;;;;5093247;28;20194;-76
2022/03/24 05:39:48;;;;;;;43.25;29.65;;;;;;;;;;5093288;28;20204;-75
2022/03/24 05:42:16;;;;;;;46.30;29.70;;;;;;;;;;5092887;28;20202;-75
2022/03/24 05:44:43;;;;;;;44.05;29.02;;;;;;;;;;5092791;28;20674;-76
2022/03/24 05:47:11;;;;;;;44.13;29.70;;;;;;;;;;5092702;28;20576;-76
2022/03/24 05:49:39;;;;;;;43.15;28.30;;;;;;;;;;5093464;28;20199;-75
2022/03/24 05:52:07;;;;;;;42.97;26.30;;;;;;;;;;5094083;28;20221;-75
2022/03/24 05:54:34;;;;;;;46.00;28.38;;;;;;;;;;5093847;28;20201;-75
2022/03/24 05:57:02;;;;;;;42.63;29.48;;;;;;;;;;5093452;28;20201;-75
2022/03/24 05:59:29;;;;;;;41.03;29.35;;;;;;;;;;5093734;28;20225;-75
2022/03/24 06:01:56;;;;;;;42.35;28.67;;;;;;;;;;5092938;28;20278;-76
2022/03/24 06:04:25;;;;;;;45.03;27.48;;;;;;;;;;5093133;28;20200;-76
2022/03/24 06:06:56;;;;;;;42.45;29.42;;;;;;;;;;5092302;28;20274;-75
2022/03/24 06:09:23;;;;;;;43.10;29.15;;;;;;;;;;5093133;28;20188;-76
2022/03/24 06:11:52;;;;;;;39.90;28.88;;;;;;;;;;5092784;28;20193;-76
2022/03/24 06:14:20;;;;;;;42.22;28.98;;;;;;;;;;5093473;28;20208;-75
2022/03/24 06:16:48;;;;;;;40.58;29.27;;;;;;;;;;5093610;28;20225;-75
2022/03/24 06:19:16;;;;;;;45.58;29.45;;;;;;;;;;5093471;28;20201;-75
2022/03/24 06:21:44;;;;;;;42.78;29.50;;;;;;;;;;5093538;28;20198;-75
2022/03/24 06:24:12;;;;;;;41.70;28.70;;;;;;;;;;5093356;28;20211;-77
2022/03/24 06:26:39;;;;;;;48.03;29.92;;;;;;;;;;5092554;28;20234;-71
2022/03/24 06:29:13;;;;;;;37.92;27.42;;;;;;;;;;5093094;28;20191;-70
2022/03/24 06:31:41;;;;;;;43.47;29.27;;;;;;;;;;5093471;28;20195;-70
2022/03/24 06:34:08;;;;;;;41.25;28.08;;;;;;;;;;5093014;28;20200;-70
2022/03/24 06:36:35;;;;;;;41.45;28.33;;;;;;;;;;5093719;28;20563;-71
2022/03/24 06:39:04;;;;;;;38.80;27.35;;;;;;;;;;5093215;28;20697;-70
2022/03/24 06:41:31;;;;;;;40.92;29.17;;;;;;;;;;5093512;28;20199;-70
2022/03/24 06:43:59;;;;;;;47.03;29.95;;;;;;;;;;5092660;28;20203;-70
2022/03/24 06:46:27;;;;;;;41.78;28.58;;;;;;;;;;5091896;28;20230;-69
2022/03/24 06:48:55;;;;;;;45.00;30.92;;;;;;;;;;5092874;28;20247;-70
2022/03/24 06:51:23;;;;;;;50.83;29.75;;;;;;;;;;5093379;28;20194;-70
2022/03/24 06:53:50;;;;;;;43.78;30.70;;;;;;;;;;5092915;28;20703;-70
2022/03/24 06:56:19;;;;;;;44.20;29.38;;;;;;;;;;5093460;28;20194;-70
2022/03/24 06:58:46;;;;;;;47.33;30.13;;;;;;;;;;5093362;28;20191;-70
2022/03/24 07:01:13;;;;;;;55.63;34.67;;;;;;;;;;5093489;28;20196;-70
2022/03/24 07:03:45;;;;;;;61.28;35.80;;;;;;;;;;5093475;28;20190;-70
2022/03/24 07:06:12;;;;;;;56.55;34.25;;;;;;;;;;5092902;28;20248;-71
2022/03/24 07:08:40;;;;;;;64.82;34.15;;;;;;;;;;5092738;28;20200;-70
2022/03/24 07:11:07;;;;;;;54.97;31.98;;;;;;;;;;5093117;28;20195;-70
2022/03/24 07:13:36;;;;;;;61.35;31.98;;;;;;;;;;5092778;28;20677;-70
2022/03/24 07:16:03;;;;;;;58.97;33.20;;;;;;;;;;5093348;28;20201;-71
2022/03/24 07:18:30;;;;;;;58.00;34.28;;;;;;;;;;5092596;28;20198;-71
2022/03/24 07:20:57;;;;;;;57.00;32.45;;;;;;;;;;5092725;28;20203;-70
2022/03/24 07:23:25;;;;;;;64.50;32.90;;;;;;;;;;5095094;28;20197;-70
2022/03/24 07:25:52;;;;;;;54.10;34.13;;;;;;;;;;5096767;28;20218;-71
2022/03/24 07:28:19;;;;;;;56.63;30.95;;;;;;;;;;5096406;28;20192;-70
2022/03/24 07:30:50;;;;;;;46.60;31.90;;;;;;;;;;5096033;28;20744;-69
2022/03/24 07:33:18;;;;;;;49.63;33.53;;;;;;;;;;5095959;28;20241;-69
2022/03/24 07:35:46;;;;;;;46.90;31.65;;;;;;;;;;5096476;28;20203;-69
2022/03/24 07:38:13;;;;;;;58.25;33.10;;;;;;;;;;5095906;28;20242;-69
2022/03/24 07:40:40;;;;;;;44.10;31.42;;;;;;;;;;5096407;28;20195;-70
2022/03/24 07:43:08;;;;;;;43.20;30.52;;;;;;;;;;5096112;28;20207;-70
2022/03/24 07:45:38;;;;;;;47.78;32.72;;;;;;;;;;5096397;28;20680;-69
2022/03/24 07:48:10;;;;;;;50.47;32.03;;;;;;;;;;5095780;28;20196;-69
2022/03/24 07:50:38;;;;;;;49.25;30.50;;;;;;;;;;5096615;28;20195;-69
2022/03/24 07:53:10;;;;;;;52.30;33.85;;;;;;;;;;5096030;28;20231;-69
2022/03/24 07:55:40;;;;;;;76.13;43.58;;;;;;;;;;5095951;28;20549;-69
2022/03/24 07:58:08;;;;;;;51.30;33.13;;;;;;;;;;5095943;28;20607;-69
2022/03/24 08:00:35;;;;;;;47.13;29.98;;;;;;;;;;5095878;28;20229;-69
2022/03/24 08:03:05;;;;;;;52.22;32.50;;;;;;;;;;5095859;28;20196;-69
2022/03/24 08:05:34;;;;;;;47.95;31.17;;;;;;;;;;5095350;28;20642;-69
2022/03/24 08:08:01;;;;;;;45.78;30.50;;;;;;;;;;5095382;28;20211;-69
2022/03/24 08:10:28;;;;;;;47.60;32.35;;;;;;;;;;5095648;28;20207;-69
2022/03/24 08:12:56;;;;;;;51.20;31.65;;;;;;;;;;5095392;28;20189;-69
2022/03/24 08:15:23;;;;;;;51.22;31.15;;;;;;;;;;5095112;28;20200;-69
2022/03/24 08:17:50;;;;;;;49.28;30.45;;;;;;;;;;5095211;28;20205;-69
2022/03/24 08:20:17;;;;;;;56.08;33.78;;;;;;;;;;5095338;28;20299;-70
2022/03/24 08:22:46;;;;;;;47.78;30.58;;;;;;;;;;5095446;28;20197;-69
2022/03/24 08:25:13;;;;;;;44.17;30.23;;;;;;;;;;5095232;28;20198;-69
2022/03/24 08:27:40;;;;;;;46.35;30.52;;;;;;;;;;5095517;28;20598;-70
2022/03/24 08:30:08;;;;;;;46.58;30.67;;;;;;;;;;5095575;28;20197;-69
2022/03/24 08:32:35;;;;;;;50.33;29.70;;;;;;;;;;5094961;28;20206;-69
2022/03/24 08:35:03;;;;;;;56.10;33.67;;;;;;;;;;5094698;28;20197;-69
2022/03/24 08:37:30;;;;;;;50.95;32.42;;;;;;;;;;5095123;28;20201;-69
2022/03/24 08:39:59;;;;;;;54.58;33.80;;;;;;;;;;5095396;28;20613;-70
2022/03/24 08:42:27;;;;;;;44.08;31.30;;;;;;;;;;5094888;28;20199;-69
2022/03/24 08:44:54;;;;;;;45.88;30.17;;;;;;;;;;5094933;28;20247;-69
2022/03/24 08:47:22;;;;;;;39.47;28.50;;;;;;;;;;5094852;28;20307;-69
2022/03/24 08:49:49;;;;;;;48.33;30.83;;;;;;;;;;5094838;28;20207;-70
2022/03/24 08:52:17;;;;;;;44.30;29.97;;;;;;;;;;5094835;28;20618;-69
2022/03/24 08:54:44;;;;;;;41.80;29.63;;;;;;;;;;5094937;28;20535;-69
2022/03/24 08:57:13;;;;;;;41.03;29.83;;;;;;;;;;5094817;28;20197;-69
2022/03/24 08:59:40;;;;;;;41.08;29.10;;;;;;;;;;5094328;28;20200;-69
2022/03/24 09:02:08;;;;;;;40.83;29.05;;;;;;;;;;5094409;28;20203;-69
2022/03/24 09:04:35;;;;;;;47.03;29.13;;;;;;;;;;5094261;28;20647;-69
2022/03/24 09:07:02;;;;;;;45.03;29.65;;;;;;;;;;5094599;28;20545;-70
2022/03/24 09:09:29;;;;;;;42.17;30.17;;;;;;;;;;5094116;28;20202;-70
2022/03/24 09:11:57;;;;;;;38.70;28.63;;;;;;;;;;5095027;28;20198;-70
2022/03/24 09:14:25;;;;;;;37.80;27.23;;;;;;;;;;5094015;28;20482;-70
2022/03/24 09:16:52;;;;;;;40.13;27.38;;;;;;;;;;5094866;28;20439;-69
2022/03/24 09:19:20;;;;;;;40.93;26.83;;;;;;;;;;5094017;28;20689;-70
2022/03/24 09:21:47;;;;;;;39.60;27.20;;;;;;;;;;5094333;28;20446;-70
2022/03/24 09:24:14;;;;;;;41.13;28.90;;;;;;;;;;5094320;28;20532;-70
2022/03/24 09:26:41;;;;;;;38.73;27.27;;;;;;;;;;5094116;28;20484;-70
2022/03/24 09:29:09;;;;;;;47.63;27.50;;;;;;;;;;5093946;28;20506;-70
2022/03/24 09:31:38;;;;;;;37.40;28.00;;;;;;;;;;5093817;28;20451;-70
2022/03/24 09:34:05;;;;;;;36.27;26.20;;;;;;;;;;5094147;28;20937;-70
2022/03/24 09:36:32;;;;;;;41.50;27.33;;;;;;;;;;5094093;28;20450;-70
2022/03/24 09:38:59;;;;;;;41.57;27.93;;;;;;;;;;5093823;28;20936;-70
2022/03/24 09:41:28;;;;;;;55.70;31.30;;;;;;;;;;5093937;28;20467;-70
2022/03/24 09:43:57;;;;;;;39.53;27.87;;;;;;;;;;5094358;28;20523;-70
2022/03/24 09:46:24;;;;;;;42.63;29.23;;;;;;;;;;5093132;28;20490;-70
2022/03/24 09:48:53;;;;;;;38.90;27.63;;;;;;;;;;5093268;28;20446;-70
2022/03/24 09:51:20;;;;;;;38.30;27.03;;;;;;;;;;5093467;28;20955;-70
2022/03/24 09:53:47;;;;;;;36.73;27.47;;;;;;;;;;5093936;28;20446;-70
2022/03/24 09:56:15;;;;;;;40.13;27.80;;;;;;;;;;5093791;28;20444;-70
2022/03/24 09:58:44;;;;;;;40.33;29.57;;;;;;;;;;5093597;28;20450;-70
2022/03/24 10:01:13;;;;;;;46.47;29.40;;;;;;;;;;5093807;28;20569;-70
2022/03/24 10:03:40;;;;;;;41.00;29.63;;;;;;;;;;5093470;28;20493;-70
2022/03/24 10:06:10;;;;;;;38.20;30.00;;;;;;;;;;5093775;28;20791;-70
2022/03/24 10:08:42;;;;;;;38.67;27.47;;;;;;;;;;5093342;28;20438;-71
2022/03/24 10:11:10;;;;;;;36.93;26.60;;;;;;;;;;5093606;28;20428;-70
2022/03/24 10:13:44;;;;;;;40.00;28.67;;;;;;;;;;5093676;28;20442;-70
2022/03/24 10:16:12;;;;;;;38.63;28.27;;;;;;;;;;5093624;28;20442;-70
2022/03/24 10:18:41;;;;;;;40.90;29.33;;;;;;;;;;5093777;28;20515;-70
2022/03/24 10:21:14;;;;;;;44.00;31.10;;;;;;;;;;5093783;28;20535;-70
2022/03/24 10:23:46;;;;;;;38.60;28.97;;;;;;;;;;5093692;28;20428;-71
2022/03/24 10:26:13;;;;;;;35.90;27.63;;;;;;;;;;5093811;28;20780;-70
2022/03/24 10:28:40;;;;;;;42.47;29.40;;;;;;;;;;5093442;28;20432;-71
2022/03/24 10:31:08;;;;;;;40.20;29.13;;;;;;;;;;5093305;28;20532;-70
2022/03/24 10:33:37;;;;;;;43.10;29.30;;;;;;;;;;5093588;28;20450;-70
2022/03/24 10:36:13;;;;;;;38.53;29.43;;;;;;;;;;5093370;28;20435;-71
2022/03/24 10:38:41;;;;;;;36.50;27.63;;;;;;;;;;5093312;28;20526;-70
2022/03/24 10:41:13;;;;;;;39.70;29.93;;;;;;;;;;5092859;28;21016;-70
2022/03/24 10:43:47;;;;;;;38.53;28.70;;;;;;;;;;5092918;28;20448;-70
2022/03/24 10:46:15;;;;;;;42.80;30.33;;;;;;;;;;5093281;28;20478;-70
2022/03/24 10:48:43;;;;;;;41.83;29.30;;;;;;;;;;5093263;28;20497;-70
2022/03/24 10:51:12;;;;;;;41.07;29.20;;;;;;;;;;5092843;28;20436;-70
2022/03/24 10:53:39;;;;;;;42.77;28.60;;;;;;;;;;5093018;28;20943;-70
2022/03/24 10:56:09;;;;;;;39.13;28.63;;;;;;;;;;5093089;28;21000;-70
2022/03/24 10:58:38;;;;;;;34.10;28.50;;;;;;;;;;5097103;28;20468;-70
2022/03/24 11:01:06;;;;;;;39.10;29.70;;;;;;;;;;5096601;28;20444;-70
2022/03/24 11:03:34;;;;;;;38.10;29.40;;;;;;;;;;5096516;28;20439;-70
2022/03/24 11:06:08;;;;;;;36.50;27.37;;;;;;;;;;5096425;28;20932;-71
2022/03/24 11:08:37;;;;;;;33.80;27.00;;;;;;;;;;5096916;28;20434;-70
2022/03/24 11:11:09;;;;;;;37.40;28.13;;;;;;;;;;5096544;28;20474;-71
2022/03/24 11:13:43;;;;;;;37.83;27.47;;;;;;;;;;5097146;28;20441;-70
2022/03/24 11:16:11;;;;;;;38.10;28.83;;;;;;;;;;5097089;28;20447;-70
2022/03/24 11:18:39;;;;;;;31.70;25.87;;;;;;;;;;5096305;28;20478;-70
2022/03/24 11:21:09;;;;;;;36.90;26.67;;;;;;;;;;5096214;28;20431;-69
2022/03/24 11:23:39;;;;;;;35.67;27.60;;;;;;;;;;5096219;28;20507;-70
2022/03/24 11:26:07;;;;;;;34.17;27.53;;;;;;;;;;5096847;28;20541;-70
2022/03/24 11:28:35;;;;;;;34.97;27.83;;;;;;;;;;5096064;28;20942;-70
2022/03/24 11:31:07;;;;;;;35.43;26.23;;;;;;;;;;5096310;28;20446;-69
2022/03/24 11:33:45;;;;;;;41.43;30.83;;;;;;;;;;5096662;28;20792;-70
2022/03/24 11:36:13;;;;;;;34.73;25.90;;;;;;;;;;5096240;28;20801;-69
2022/03/24 11:38:43;;;;;;;32.47;25.00;;;;;;;;;;5096348;28;20444;-69
2022/03/24 11:41:14;;;;;;;35.83;27.63;;;;;;;;;;5096304;28;20851;-69
2022/03/24 11:43:43;;;;;;;33.13;27.10;;;;;;;;;;5096233;28;20442;-69
2022/03/24 11:46:12;;;;;;;34.17;26.80;;;;;;;;;;5096158;28;20471;-69
2022/03/24 11:48:40;;;;;;;36.37;25.07;;;;;;;;;;5095872;28;20476;-69
2022/03/24 11:51:08;;;;;;;34.40;26.00;;;;;;;;;;5095573;28;20447;-69
2022/03/24 11:53:38;;;;;;;33.67;23.97;;;;;;;;;;5095783;28;20454;-69
2022/03/24 11:56:14;;;;;;;28.07;23.10;;;;;;;;;;5095657;28;20424;-69
2022/03/24 11:58:46;;;;;;;34.87;24.63;;;;;;;;;;5095720;28;20443;-69
2022/03/24 12:01:28;;;;;;;30.40;24.90;;;;;;;;;;5095995;28;20817;-69
2022/03/24 12:04:02;;;;;;;30.80;24.50;;;;;;;;;;5095530;28;20538;-68
2022/03/24 12:07:01;;;;;;;32.47;26.40;;;;;;;;;;5095474;28;20451;-69
2022/03/24 12:09:32;;;;;;;35.30;26.00;;;;;;;;;;5052187;28;20908;-69
2022/03/24 12:12:13;;;;;;;33.67;26.40;;;;;;;;;;5087257;28;20458;-69
2022/03/24 12:14:45;;;;;;;31.10;25.23;;;;;;;;;;5095258;28;20542;-70
2022/03/24 12:17:20;;;;;;;33.57;25.40;;;;;;;;;;5095514;28;20440;-70
2022/03/24 12:19:49;;;;;;;33.47;24.70;;;;;;;;;;5095165;28;20501;-70
2022/03/24 12:22:36;;;;;;;35.60;26.70;;;;;;;;;;5095153;28;20442;-69
2022/03/24 12:25:26;;;;;;;31.27;25.00;;;;;;;;;;5095219;28;20444;-69
2022/03/24 12:28:03;;;;;;;30.87;25.50;;;;;;;;;;5095210;28;20817;-69
2022/03/24 12:30:43;;;;;;;33.97;26.60;;;;;;;;;;5095333;28;20433;-70
2022/03/24 12:33:12;;;;;;;35.93;27.97;;;;;;;;;;5094582;28;20515;-70
2022/03/24 12:35:46;;;;;;;37.57;29.13;;;;;;;;;;5094538;28;20437;-70
2022/03/24 12:38:38;;;;;;;37.63;27.40;;;;;;;;;;5094581;28;20933;-72
2022/03/24 12:41:20;;;;;;;37.80;26.70;;;;;;;;;;5084341;28;20451;-70
2022/03/24 12:43:49;;;;;;;33.40;26.67;;;;;;;;;;5094418;28;20445;-71
2022/03/24 12:46:34;;;;;;;35.73;27.13;;;;;;;;;;5094700;28;20834;-71
2022/03/24 12:49:09;;;;;;;36.60;27.93;;;;;;;;;;5093664;28;20709;-71
2022/03/24 12:51:50;;;;;;;29.40;25.27;;;;;;;;;;5093424;28;20851;-72
2022/03/24 12:54:19;;;;;;;34.60;27.30;;;;;;;;;;5093562;28;20442;-71
2022/03/24 12:56:47;;;;;;;39.47;28.93;;;;;;;;;;5093305;28;20479;-72
2022/03/24 12:59:19;;;;;;;41.37;29.33;;;;;;;;;;5093893;28;20436;-72
2022/03/24 13:01:48;;;;;;;34.83;27.93;;;;;;;;;;5093596;28;20861;-71
2022/03/24 13:04:16;;;;;;;41.90;29.90;;;;;;;;;;5093462;28;20438;-72
2022/03/24 13:06:43;;;;;;;38.40;29.10;;;;;;;;;;5093410;28;20466;-71
2022/03/24 13:09:18;;;;;;;33.97;28.83;;;;;;;;;;5093766;28;20483;-72
2022/03/24 13:11:50;;;;;;;38.03;29.97;;;;;;;;;;5093268;28;20471;-71
2022/03/24 13:14:19;;;;;;;40.17;31.30;;;;;;;;;;5093752;28;20509;-71
2022/03/24 13:16:59;;;;;;;37.67;30.53;;;;;;;;;;5092959;28;20439;-70
2022/03/24 13:19:27;;;;;;;42.33;30.07;;;;;;;;;;5093362;28;20435;-71
2022/03/24 13:21:54;;;;;;;36.90;28.43;;;;;;;;;;5093102;28;20447;-71
2022/03/24 13:24:21;;;;;;;35.13;27.80;;;;;;;;;;5092248;28;20533;-72
2022/03/24 13:26:58;;;;;;;37.97;27.70;;;;;;;;;;5094273;28;20486;-72
2022/03/24 13:29:37;;;;;;;36.20;27.87;;;;;;;;;;5093699;28;20469;-71
2022/03/24 13:32:11;;;;;;;36.73;28.27;;;;;;;;;;5093811;28;20454;-71
2022/03/24 13:34:38;;;;;;;40.50;30.10;;;;;;;;;;5093712;28;20449;-71
2022/03/24 13:37:12;;;;;;;36.57;29.20;;;;;;;;;;5093540;28;20949;-71
2022/03/24 13:39:39;;;;;;;35.40;28.27;;;;;;;;;;5093476;28;20526;-72
2022/03/24 13:42:10;;;;;;;43.77;29.83;;;;;;;;;;5092339;28;20475;-71
2022/03/24 13:44:38;;;;;;;42.57;28.93;;;;;;;;;;5092612;28;20498;-72
2022/03/24 13:47:09;;;;;;;37.77;28.13;;;;;;;;;;5093314;28;20434;-72
2022/03/24 13:49:37;;;;;;;38.33;28.90;;;;;;;;;;5073668;28;20483;-73
2022/03/24 13:52:06;;;;;;;40.40;30.33;;;;;;;;;;5073023;28;20468;-72
2022/03/24 13:54:34;;;;;;;45.97;32.17;;;;;;;;;;5073197;28;20527;-72
2022/03/24 13:57:01;;;;;;;40.93;28.93;;;;;;;;;;5073307;28;20480;-72
2022/03/24 13:59:31;;;;;;;41.70;31.50;;;;;;;;;;5072965;28;20436;-72
2022/03/24 14:02:04;;;;;;;45.43;30.27;;;;;;;;;;5073155;28;20465;-72
2022/03/24 14:04:32;;;;;;;47.87;32.73;;;;;;;;;;5072133;28;20982;-72
2022/03/24 14:07:06;;;;;;;38.50;31.20;;;;;;;;;;5073308;28;20449;-72
2022/03/24 14:09:39;;;;;;;41.30;30.33;;;;;;;;;;5072808;28;20937;-71
2022/03/24 14:12:09;;;;;;;43.83;31.10;;;;;;;;;;5073302;28;20429;-71
2022/03/24 14:14:45;;;;;;;38.97;29.90;;;;;;;;;;5073189;28;20455;-72
2022/03/24 14:17:14;;;;;;;37.90;29.80;;;;;;;;;;5073873;28;20839;-73
2022/03/24 14:19:54;;;;;;;36.77;30.40;;;;;;;;;;5092719;28;20477;-71
2022/03/24 14:22:21;;;;;;;46.53;29.37;;;;;;;;;;5091876;28;20443;-72
2022/03/24 14:24:50;;;;;;;41.00;30.97;;;;;;;;;;5092338;28;20449;-72
2022/03/24 14:27:19;;;;;;;38.90;29.80;;;;;;;;;;5093726;28;20444;-72